Highest pressure

Not for real navigation. The accuracy of this data is not assured See disclaimer for more information



ICAO NAME COUNTRY WIND Kt GUST Kt VIS m TEMP/DEW C BARO METAR
UWLW Ulyanovsk Russia 2 0 8000 -14/-16 30.71 UWLW 190700Z 03002KT 8000 -SN BKN006 M14/M16 Q1040 R02/820552 NOSIG RMK QFE773
UARR Uralsk Kazakhstan 1 0 4600 -7/-8 30.71 UARR 190700Z 36001KT 4600 BR BKN008 OVC016 M07/M08 Q1040 R04/720250 NOSIG RMK QFE776/1035
UUDL 1 0 9000 -12/-14 30.68 UUDL 190700Z 09001KT 9000 -SN OVC037 M12/M14 Q1039 R23/490538 NOSIG RMK QFE770
UWOO Orenburg / Tsentralny Russia 3 0 7000 -12/-14 30.68 UWOO 190700Z 27003KT 7000 -SN OVC007 M12/M14 Q1039 R26/490140 NOSIG RMK QFE768/1025
UWKD Kazan’ Russia 0 0 6000 -13/-15 30.68 UWKD 190700Z 00000KT 6000 OVC006 M13/M15 Q1039 R11/390040 TEMPO 1000 BR RMK QFE769/1026

Show more